Terminal Aerodrome Forecast
Issued by NWS Grand Forks, ND

Home | Current Version | Previous Version | Text Only | Print | Product List | Glossary On
Versions: 1 2 3 4 5 6 7 8 9 10 11 12 13 14 15
000
FTUS43 KFGF 190500
TAFGFK
TAF
KGFK 190520Z 1906/2006 16008KT P6SM OVC090
     FM190900 32009KT P6SM -RA OVC050
     FM191300 32017G25KT P6SM -RA OVC025
     FM191700 33020G29KT P6SM OVC050
     FM200200 32014G23KT P6SM BKN050=

USA.gov is the U.S. government's official web portal to all federal, state and local government web resources and services.